Seabourn Legend — C6FR6 — position and weather

sailwx.info

Track history (hours):
 
Tides and Currents Weather Stations Pressure Air Temp Water Temp Dewpoint Dewpoint Depression Visibility Wind Speed Wind Dir Waves Ship Positions

Seabourn Legend

Operator: Cunard Seabourn

Last reported at 2018-Feb-21 13:00 UTC. Time now 2018-Feb-22 10:39 UTC.
Position N 13°54' E 120°24'.

Length 135 m; draft 5.6 m.

Type: Passenger vessel. MMSI: 311085000.

Wind from 070 at 20 knots

Barometer 1011.1 mb
Air temperature 27.3 ° C
Visibility: greater than 10.8 NM
Dewpoint 23.2 ° C

Date/timePositionNaut miles runAvg speedWind from/ knotsBaromVisibWave heightAir tempDewpointWater temp
2018-Feb-21 13:00N 13°54' E 120°24'   070 / 201011.110.8 27.323.2
2018-Feb-18 13:00N 18°00' E 118°36'16513.8 040 / 161013.2 5.4 25.023.5
2018-Feb-18 01:00N 20°00' E 116°36'14012.7 090 / 261017.1 5.4 24.021.0
2018-Feb-17 14:00N 21°42' E 114°54'5312.1 060 / 281017.3 5.4 19.017.4
2018-Feb-17 09:35N 22°18' E 114°12'1 7.7
2018-Feb-17 09:30N 22°18' E 114°11'1 1.6
2018-Feb-17 08:58N 22°18' E 114°10'0 0.0
2018-Feb-17 08:28N 22°18' E 114°10'0 0.0
2018-Feb-17 07:58N 22°18' E 114°10'0 0.0
2018-Feb-17 07:28N 22°18' E 114°10'0 0.0
2018-Feb-17 06:55N 22°18' E 114°10'0 0.0
2018-Feb-17 06:28N 22°18' E 114°10'0 0.0
2018-Feb-17 05:58N 22°18' E 114°10'0 0.0
2018-Feb-17 05:28N 22°18' E 114°10'0 0.0
2018-Feb-17 04:58N 22°18' E 114°10'0 0.0
2018-Feb-17 04:28N 22°18' E 114°10'0 0.0
2018-Feb-17 03:58N 22°18' E 114°10'0 0.0
2018-Feb-17 03:28N 22°18' E 114°10'0 0.0
2018-Feb-17 02:58N 22°18' E 114°10'0 0.0
2018-Feb-17 02:28N 22°18' E 114°10'0 0.0
2018-Feb-17 01:58N 22°18' E 114°10'0 0.0
2018-Feb-17 01:28N 22°18' E 114°10'0 0.0
2018-Feb-17 00:58N 22°18' E 114°10'0 0.0
2018-Feb-17 00:28N 22°18' E 114°10'0 0.0
2018-Feb-16 23:58N 22°18' E 114°10'0 0.0
2018-Feb-16 23:29N 22°18' E 114°10'0 0.5
2018-Feb-16 23:00N 22°18' E 114°10'96 9.6
2018-Feb-16 13:00N 21°18' E 112°48'14011.7 120 / 41016.0 5.4 21.017.8
2018-Feb-16 01:00N 20°12' E 110°36'13612.3 050 / 71016.7 5.4 18.517.9
2018-Feb-15 14:00N 20°24' E 108°12'75 1.5 110 / 111014.0 5.4 19.018.2
2018-Feb-13 13:00N 19°24' E 107°24'98 9.8 030 / 71020.7 2.2 18.212.9
2018-Feb-13 03:00N 17°48' E 107°42'97 9.0 090 / 131024.6 5.4 20.713.2
2018-Feb-12 16:15N 16°16' E 108°14'2 8.4
2018-Feb-12 15:58N 16°14' E 108°14'3 7.4
2018-Feb-12 15:30N 16°11' E 108°12'3 7.0
2018-Feb-12 15:00N 16°07' E 108°13'0 0.5
2018-Feb-12 14:28N 16°07' E 108°13'0 0.0
2018-Feb-12 13:58N 16°07' E 108°13'0 0.0
2018-Feb-12 13:25N 16°07' E 108°13'0 0.0
2018-Feb-12 12:58N 16°07' E 108°13'0 0.0
2018-Feb-12 12:28N 16°07' E 108°13'0 0.0
2018-Feb-12 11:59N 16°07' E 108°13'0 0.0
2018-Feb-12 11:28N 16°07' E 108°13'0 0.0
2018-Feb-12 10:59N 16°07' E 108°13'0 0.0
2018-Feb-12 10:29N 16°07' E 108°13'0 0.0
2018-Feb-12 09:59N 16°07' E 108°13'0 0.0
2018-Feb-12 09:28N 16°07' E 108°13'0 0.0
2018-Feb-12 08:58N 16°07' E 108°13'0 0.0
2018-Feb-12 08:28N 16°07' E 108°13'0 0.0
2018-Feb-12 07:55N 16°07' E 108°13'0 0.0
2018-Feb-12 07:28N 16°07' E 108°13'0 0.0
2018-Feb-12 06:59N 16°07' E 108°13'0 0.0
2018-Feb-12 06:25N 16°07' E 108°13'0 0.0
2018-Feb-12 05:55N 16°07' E 108°13'0 0.0
2018-Feb-12 05:28N 16°07' E 108°13'0 0.0
2018-Feb-12 04:55N 16°07' E 108°13'0 0.0
2018-Feb-12 04:28N 16°07' E 108°13'0 0.0
2018-Feb-12 03:58N 16°07' E 108°13'0 0.0
2018-Feb-12 03:29N 16°07' E 108°13'0 0.0
2018-Feb-12 02:59N 16°07' E 108°13'0 0.0
2018-Feb-12 02:29N 16°07' E 108°13'0 0.0
2018-Feb-12 01:59N 16°07' E 108°13'0 0.0
2018-Feb-12 01:29N 16°07' E 108°13'0 0.0
2018-Feb-12 00:58N 16°07' E 108°13'0 0.0
2018-Feb-12 00:28N 16°07' E 108°13'0 0.0
2018-Feb-11 23:58N 16°07' E 108°13'0 0.0
2018-Feb-11 23:25N 16°07' E 108°13'0 0.0
2018-Feb-11 22:58N 16°07' E 108°13'0 0.0
2018-Feb-11 22:28N 16°07' E 108°13'0 0.0
2018-Feb-11 21:58N 16°07' E 108°13'0 0.0
2018-Feb-11 21:28N 16°07' E 108°13'0 0.0
2018-Feb-11 20:58N 16°07' E 108°13'0 0.0
2018-Feb-11 20:28N 16°07' E 108°13'0 0.0
2018-Feb-11 19:58N 16°07' E 108°13'0 0.0
2018-Feb-11 19:28N 16°07' E 108°13'0 0.0
2018-Feb-11 18:58N 16°07' E 108°13'0 0.0
2018-Feb-11 18:28N 16°07' E 108°13'0 0.0
2018-Feb-11 17:58N 16°07' E 108°13'0 0.0
2018-Feb-11 17:28N 16°07' E 108°13'0 0.0
2018-Feb-11 16:58N 16°07' E 108°13'0 0.0
2018-Feb-11 16:25N 16°07' E 108°13'0 0.0
2018-Feb-11 15:58N 16°07' E 108°13'0 0.0
2018-Feb-11 15:28N 16°07' E 108°13'0 0.0
2018-Feb-11 14:58N 16°07' E 108°13'0 0.0
2018-Feb-11 14:25N 16°07' E 108°13'0 0.0
2018-Feb-11 13:58N 16°07' E 108°13'0 0.0
2018-Feb-11 13:28N 16°07' E 108°13'  
Track history (hours):
 
Tides and Currents Weather Stations Pressure Air Temp Water Temp Dewpoint Dewpoint Depression Visibility Wind Speed Wind Dir Waves Ship Positions

Seabourn Legend

Operator: Cunard Seabourn

Last reported at 2018-Feb-21 13:00 UTC. Time now 2018-Feb-22 10:39 UTC.
Position N 13°54' E 120°24'.

Length 135 m; draft 5.6 m.

Type: Passenger vessel. MMSI: 311085000.

Wind from 070 at 20 knots

Barometer 1011.1 mb
Air temperature 27.3 ° C
Visibility: greater than 10.8 NM
Dewpoint 23.2 ° C

Date/timePositionNaut miles runAvg speedWind from/ knotsBaromVisibWave heightAir tempDewpointWater temp
2018-Feb-21 13:00N 13°54' E 120°24'   070 / 201011.110.8 27.323.2
2018-Feb-18 13:00N 18°00' E 118°36'16513.8 040 / 161013.2 5.4 25.023.5
2018-Feb-18 01:00N 20°00' E 116°36'14012.7 090 / 261017.1 5.4 24.021.0
2018-Feb-17 14:00N 21°42' E 114°54'5312.1 060 / 281017.3 5.4 19.017.4
2018-Feb-17 09:35N 22°18' E 114°12'1 7.7
2018-Feb-17 09:30N 22°18' E 114°11'1 1.6
2018-Feb-17 08:58N 22°18' E 114°10'0 0.0
2018-Feb-17 08:28N 22°18' E 114°10'0 0.0
2018-Feb-17 07:58N 22°18' E 114°10'0 0.0
2018-Feb-17 07:28N 22°18' E 114°10'0 0.0
2018-Feb-17 06:55N 22°18' E 114°10'0 0.0
2018-Feb-17 06:28N 22°18' E 114°10'0 0.0
2018-Feb-17 05:58N 22°18' E 114°10'0 0.0
2018-Feb-17 05:28N 22°18' E 114°10'0 0.0
2018-Feb-17 04:58N 22°18' E 114°10'0 0.0
2018-Feb-17 04:28N 22°18' E 114°10'0 0.0
2018-Feb-17 03:58N 22°18' E 114°10'0 0.0
2018-Feb-17 03:28N 22°18' E 114°10'0 0.0
2018-Feb-17 02:58N 22°18' E 114°10'0 0.0
2018-Feb-17 02:28N 22°18' E 114°10'0 0.0
2018-Feb-17 01:58N 22°18' E 114°10'0 0.0
2018-Feb-17 01:28N 22°18' E 114°10'0 0.0
2018-Feb-17 00:58N 22°18' E 114°10'0 0.0
2018-Feb-17 00:28N 22°18' E 114°10'0 0.0
2018-Feb-16 23:58N 22°18' E 114°10'0 0.0
2018-Feb-16 23:29N 22°18' E 114°10'0 0.5
2018-Feb-16 23:00N 22°18' E 114°10'96 9.6
2018-Feb-16 13:00N 21°18' E 112°48'14011.7 120 / 41016.0 5.4 21.017.8
2018-Feb-16 01:00N 20°12' E 110°36'13612.3 050 / 71016.7 5.4 18.517.9
2018-Feb-15 14:00N 20°24' E 108°12'75 1.5 110 / 111014.0 5.4 19.018.2
2018-Feb-13 13:00N 19°24' E 107°24'98 9.8 030 / 71020.7 2.2 18.212.9
2018-Feb-13 03:00N 17°48' E 107°42'97 9.0 090 / 131024.6 5.4 20.713.2
2018-Feb-12 16:15N 16°16' E 108°14'2 8.4
2018-Feb-12 15:58N 16°14' E 108°14'3 7.4
2018-Feb-12 15:30N 16°11' E 108°12'3 7.0
2018-Feb-12 15:00N 16°07' E 108°13'0 0.5
2018-Feb-12 14:28N 16°07' E 108°13'0 0.0
2018-Feb-12 13:58N 16°07' E 108°13'0 0.0
2018-Feb-12 13:25N 16°07' E 108°13'0 0.0
2018-Feb-12 12:58N 16°07' E 108°13'0 0.0
2018-Feb-12 12:28N 16°07' E 108°13'0 0.0
2018-Feb-12 11:59N 16°07' E 108°13'0 0.0
2018-Feb-12 11:28N 16°07' E 108°13'0 0.0
2018-Feb-12 10:59N 16°07' E 108°13'0 0.0
2018-Feb-12 10:29N 16°07' E 108°13'0 0.0
2018-Feb-12 09:59N 16°07' E 108°13'0 0.0
2018-Feb-12 09:28N 16°07' E 108°13'0 0.0
2018-Feb-12 08:58N 16°07' E 108°13'0 0.0
2018-Feb-12 08:28N 16°07' E 108°13'0 0.0
2018-Feb-12 07:55N 16°07' E 108°13'0 0.0
2018-Feb-12 07:28N 16°07' E 108°13'0 0.0
2018-Feb-12 06:59N 16°07' E 108°13'0 0.0
2018-Feb-12 06:25N 16°07' E 108°13'0 0.0
2018-Feb-12 05:55N 16°07' E 108°13'0 0.0
2018-Feb-12 05:28N 16°07' E 108°13'0 0.0
2018-Feb-12 04:55N 16°07' E 108°13'0 0.0
2018-Feb-12 04:28N 16°07' E 108°13'0 0.0
2018-Feb-12 03:58N 16°07' E 108°13'0 0.0
2018-Feb-12 03:29N 16°07' E 108°13'0 0.0
2018-Feb-12 02:59N 16°07' E 108°13'0 0.0
2018-Feb-12 02:29N 16°07' E 108°13'0 0.0
2018-Feb-12 01:59N 16°07' E 108°13'0 0.0
2018-Feb-12 01:29N 16°07' E 108°13'0 0.0
2018-Feb-12 00:58N 16°07' E 108°13'0 0.0
2018-Feb-12 00:28N 16°07' E 108°13'0 0.0
2018-Feb-11 23:58N 16°07' E 108°13'0 0.0
2018-Feb-11 23:25N 16°07' E 108°13'0 0.0
2018-Feb-11 22:58N 16°07' E 108°13'0 0.0
2018-Feb-11 22:28N 16°07' E 108°13'0 0.0
2018-Feb-11 21:58N 16°07' E 108°13'0 0.0
2018-Feb-11 21:28N 16°07' E 108°13'0 0.0
2018-Feb-11 20:58N 16°07' E 108°13'0 0.0
2018-Feb-11 20:28N 16°07' E 108°13'0 0.0
2018-Feb-11 19:58N 16°07' E 108°13'0 0.0
2018-Feb-11 19:28N 16°07' E 108°13'0 0.0
2018-Feb-11 18:58N 16°07' E 108°13'0 0.0
2018-Feb-11 18:28N 16°07' E 108°13'0 0.0
2018-Feb-11 17:58N 16°07' E 108°13'0 0.0
2018-Feb-11 17:28N 16°07' E 108°13'0 0.0
2018-Feb-11 16:58N 16°07' E 108°13'0 0.0
2018-Feb-11 16:25N 16°07' E 108°13'0 0.0
2018-Feb-11 15:58N 16°07' E 108°13'0 0.0
2018-Feb-11 15:28N 16°07' E 108°13'0 0.0
2018-Feb-11 14:58N 16°07' E 108°13'0 0.0
2018-Feb-11 14:25N 16°07' E 108°13'0 0.0
2018-Feb-11 13:58N 16°07' E 108°13'0 0.0
2018-Feb-11 13:28N 16°07' E 108°13'  

Dump ship's entire track history